createdAt,value
2022-09-01T00:00:13.419Z,6.53
2022-09-01T00:03:05.931Z,5.50
2022-09-01T00:05:38.718Z,9.23
2022-09-01T00:08:11.266Z,5.25
2022-09-01T00:10:49.070Z,5.93
2022-09-01T00:13:21.614Z,3.97
2022-09-01T00:15:54.749Z,7.07
2022-09-01T00:18:27.384Z,6.85
2022-09-01T00:21:00.711Z,6.30
2022-09-01T00:23:33.255Z,5.88
2022-09-01T00:26:06.571Z,4.90
2022-09-01T00:28:40.041Z,6.75
2022-09-01T00:31:15.226Z,6.65
2022-09-01T00:33:49.807Z,5.90
2022-09-01T00:36:22.740Z,9.38
2022-09-01T00:38:55.319Z,7.00
2022-09-01T00:41:34.711Z,8.10
2022-09-01T00:44:13.522Z,4.80
2022-09-01T00:46:55.550Z,8.77
2022-09-01T00:49:35.342Z,5.10
2022-09-01T00:52:16.493Z,9.43
2022-09-01T00:54:58.205Z,5.28
2022-09-01T00:57:31.094Z,6.50
2022-09-01T01:00:17.750Z,12.60
2022-09-01T01:02:56.064Z,6.68
2022-09-01T01:05:36.604Z,11.02
2022-09-01T01:08:11.859Z,6.43
2022-09-01T01:10:44.453Z,9.80
2022-09-01T01:13:17.451Z,9.85
2022-09-01T01:15:50.014Z,6.72
2022-09-01T01:18:23.143Z,10.07
2022-09-01T01:21:25.086Z,8.15
2022-09-01T01:24:36.181Z,8.93
2022-09-01T01:27:08.758Z,4.65
2022-09-01T01:29:41.550Z,13.95
2022-09-01T01:32:14.343Z,11.60
2022-09-01T01:34:48.707Z,7.10
2022-09-01T01:37:25.121Z,10.52
2022-09-01T01:39:57.881Z,12.07
2022-09-01T01:42:33.502Z,6.78
2022-09-01T01:45:08.210Z,6.18
2022-09-01T01:47:40.781Z,9.52
2022-09-01T01:50:15.756Z,7.95
2022-09-01T01:52:48.445Z,6.28
2022-09-01T01:55:29.058Z,7.15
2022-09-01T01:58:01.921Z,9.50
2022-09-01T02:00:34.726Z,6.68
2022-09-01T02:03:07.598Z,9.25
2022-09-01T02:05:40.950Z,11.57
2022-09-01T02:08:15.698Z,6.00
2022-09-01T02:10:55.474Z,8.57
2022-09-01T02:13:31.291Z,6.38
2022-09-01T02:16:13.626Z,6.15
2022-09-01T02:18:48.250Z,7.88
2022-09-01T02:21:23.121Z,7.25
2022-09-01T02:24:08.586Z,8.10
2022-09-01T02:26:47.450Z,6.68
2022-09-01T02:29:22.737Z,7.70
2022-09-01T02:31:56.609Z,6.38
2022-09-01T02:34:29.322Z,5.50
2022-09-01T02:37:02.405Z,6.55
2022-09-01T02:39:35.005Z,10.10
2022-09-01T02:42:08.515Z,6.95
2022-09-01T02:44:41.571Z,6.90
2022-09-01T02:47:16.202Z,6.80
2022-09-01T02:49:50.501Z,5.85
2022-09-01T02:52:23.848Z,8.57
2022-09-01T02:54:56.665Z,12.40
2022-09-01T02:57:29.541Z,6.13
2022-09-01T03:00:05.246Z,5.97
2022-09-01T03:02:37.975Z,7.18
2022-09-01T03:05:11.736Z,11.52
2022-09-01T03:07:44.509Z,8.18
2022-09-01T03:10:17.649Z,8.52
2022-09-01T03:12:50.729Z,7.68
2022-09-01T03:15:23.557Z,5.82
2022-09-01T03:17:57.948Z,6.22
2022-09-01T03:20:34.113Z,10.98
2022-09-01T03:23:09.163Z,9.48
2022-09-01T03:25:46.546Z,10.70
2022-09-01T03:28:19.391Z,11.23
2022-09-01T03:30:55.076Z,8.63
2022-09-01T03:33:28.683Z,7.03
2022-09-01T03:36:01.301Z,9.50
2022-09-01T03:38:34.311Z,9.75
2022-09-01T03:41:06.924Z,11.38
2022-09-01T03:43:39.649Z,6.30
2022-09-01T03:48:58.814Z,9.75
2022-09-01T03:51:31.449Z,7.03
2022-09-01T03:54:05.240Z,8.02
2022-09-01T03:56:40.707Z,11.18
2022-09-01T03:59:17.277Z,8.23
2022-09-01T04:01:50.049Z,14.13
2022-09-01T04:04:22.871Z,7.25
2022-09-01T04:06:55.620Z,11.40
2022-09-01T04:09:28.472Z,8.27
2022-09-01T04:12:01.080Z,11.50
2022-09-01T04:14:35.016Z,6.07
2022-09-01T04:17:30.371Z,7.38
2022-09-01T04:20:09.005Z,10.57
2022-09-01T04:22:41.796Z,5.97
2022-09-01T04:25:16.113Z,7.68
2022-09-01T04:27:54.078Z,8.05
2022-09-01T04:30:32.462Z,8.23
2022-09-01T04:33:05.008Z,6.05
2022-09-01T04:35:41.726Z,13.43
2022-09-01T04:38:16.194Z,5.90
2022-09-01T04:40:49.629Z,6.75
2022-09-01T04:43:22.241Z,7.32
2022-09-01T04:45:56.447Z,7.18
2022-09-01T04:48:29.657Z,6.55
2022-09-01T04:51:10.512Z,6.53
2022-09-01T04:53:48.870Z,6.50
2022-09-01T04:56:23.168Z,7.95
2022-09-01T04:58:55.984Z,9.38
2022-09-01T05:01:28.794Z,6.85
2022-09-01T05:04:03.865Z,7.85
2022-09-01T05:06:39.561Z,7.10
2022-09-01T05:09:13.253Z,15.50
2022-09-01T05:11:46.497Z,4.97
2022-09-01T05:14:22.492Z,5.57
2022-09-01T05:16:59.536Z,4.60
2022-09-01T05:19:32.285Z,6.78
2022-09-01T05:22:05.088Z,10.95
2022-09-01T05:24:41.936Z,6.03
2022-09-01T05:27:17.722Z,3.10
2022-09-01T05:29:50.609Z,5.47
2022-09-01T05:32:26.198Z,6.43
2022-09-01T05:34:59.091Z,9.88
2022-09-01T05:37:31.835Z,8.52
2022-09-01T05:40:16.417Z,5.80
2022-09-01T05:42:49.380Z,8.82
2022-09-01T05:45:23.840Z,5.25
2022-09-01T05:47:57.194Z,6.22
2022-09-01T05:50:29.924Z,11.93
2022-09-01T05:53:11.067Z,11.65
2022-09-01T05:55:47.289Z,10.95
2022-09-01T05:58:20.450Z,3.33
2022-09-01T06:00:55.843Z,6.68
2022-09-01T06:03:30.474Z,6.30
2022-09-01T06:06:12.466Z,2.75
2022-09-01T06:08:49.289Z,17.40
2022-09-01T06:11:24.953Z,8.80
2022-09-01T06:13:58.846Z,9.45
2022-09-01T06:16:31.507Z,6.95
2022-09-01T06:19:05.332Z,10.52
2022-09-01T06:21:39.961Z,7.45
2022-09-01T06:24:12.977Z,10.65
2022-09-01T06:26:46.860Z,30.30
2022-09-01T06:29:21.144Z,6.38
2022-09-01T06:31:53.703Z,8.10
2022-09-01T06:34:26.495Z,11.65
2022-09-01T06:36:59.723Z,9.40
2022-09-01T06:39:34.483Z,8.43
2022-09-01T06:42:09.610Z,28.90
2022-09-01T06:44:42.365Z,3.83
2022-09-01T06:47:15.673Z,5.55
2022-09-01T06:50:02.304Z,7.63
2022-09-01T06:55:49.589Z,4.75
2022-09-01T06:58:22.327Z,2.38
2022-09-01T07:00:59.315Z,3.13
2022-09-01T07:03:32.223Z,3.30
2022-09-01T07:12:08.516Z,2.58
2022-09-01T07:17:55.644Z,2.92
2022-09-01T07:20:29.383Z,3.47
2022-09-01T07:26:07.087Z,1.77
2022-09-01T07:28:40.461Z,0.80
2022-09-01T07:42:30.800Z,1.63
2022-09-01T07:45:59.080Z,2.63
2022-09-01T07:48:36.447Z,13.95
2022-09-01T07:51:42.137Z,3.15
2022-09-01T07:54:14.960Z,0.93
2022-09-01T07:56:48.124Z,3.17
2022-09-01T07:59:21.392Z,2.58
2022-09-01T08:01:55.411Z,0.68
2022-09-01T08:04:28.341Z,1.88
2022-09-01T08:07:01.816Z,5.05
2022-09-01T08:09:43.694Z,5.60
2022-09-01T08:12:17.251Z,2.13
2022-09-01T08:15:12.654Z,1.65
2022-09-01T08:17:53.185Z,2.33
2022-09-01T08:20:25.938Z,2.88
2022-09-01T08:22:58.734Z,1.60
2022-09-01T08:25:32.770Z,1.05
2022-09-01T08:28:05.938Z,0.40
2022-09-01T08:30:40.569Z,1.27
2022-09-01T08:33:14.005Z,2.40
2022-09-01T08:35:49.410Z,1.52
2022-09-01T08:38:22.337Z,2.92
2022-09-01T08:40:57.555Z,0.40
2022-09-01T08:43:50.282Z,0.70
2022-09-01T08:46:39.734Z,0.90
2022-09-01T08:49:27.748Z,0.20
2022-09-01T08:52:12.560Z,2.30
2022-09-01T08:54:49.943Z,7.43
2022-09-01T08:57:35.969Z,1.73
2022-09-01T09:00:13.693Z,1.52
2022-09-01T09:03:00.279Z,2.67
2022-09-01T09:05:54.588Z,1.63
2022-09-01T09:08:33.565Z,2.45
2022-09-01T09:11:21.858Z,0.40
2022-09-01T09:14:01.303Z,0.95
2022-09-01T09:16:51.530Z,1.85
2022-09-01T09:19:42.040Z,1.20
2022-09-01T09:22:18.195Z,1.10
2022-09-01T09:25:04.350Z,2.13
2022-09-01T09:27:39.947Z,0.70
2022-09-01T09:30:15.056Z,0.47
2022-09-01T09:36:22.165Z,6.20
2022-09-01T09:39:18.696Z,0.30
2022-09-01T09:42:11.024Z,3.08
2022-09-01T09:44:51.267Z,2.05
2022-09-01T09:47:45.187Z,0.50
2022-09-01T09:50:20.145Z,1.95
2022-09-01T09:53:10.188Z,0.55
2022-09-01T09:58:39.800Z,1.38
2022-09-01T10:01:18.209Z,0.60
2022-09-01T10:03:53.962Z,0.73
2022-09-01T10:06:32.622Z,0.77
2022-09-01T10:09:22.816Z,0.65
2022-09-01T10:11:57.525Z,0.35
2022-09-01T10:14:51.963Z,0.55
2022-09-01T10:17:40.515Z,2.38
2022-09-01T10:20:22.141Z,1.08
2022-09-01T10:22:56.195Z,0.30
2022-09-01T10:25:33.308Z,0.38
2022-09-01T10:28:24.614Z,1.50
2022-09-01T10:30:59.824Z,2.97
2022-09-01T10:33:32.634Z,2.80
2022-09-01T10:36:08.002Z,0.95
2022-09-01T10:38:52.635Z,0.50
2022-09-01T10:42:01.030Z,6.20
2022-09-01T10:44:36.385Z,1.08
2022-09-01T10:47:24.735Z,2.38
2022-09-01T10:50:07.430Z,0.70
2022-09-01T10:52:43.456Z,2.03
2022-09-01T10:55:24.966Z,0.63
2022-09-01T11:01:48.983Z,2.78
2022-09-01T11:04:24.135Z,1.58
2022-09-01T11:07:38.924Z,1.17
2022-09-01T11:10:34.448Z,1.30
2022-09-01T11:13:32.943Z,0.35
2022-09-01T11:16:53.200Z,1.33
2022-09-01T11:19:44.480Z,0.50
2022-09-01T11:22:32.750Z,0.52
2022-09-01T11:25:39.599Z,1.88
2022-09-01T11:28:17.854Z,1.27
2022-09-01T11:31:05.924Z,0.30
2022-09-01T11:34:13.103Z,0.68
2022-09-01T11:36:48.723Z,0.82
2022-09-01T11:39:36.781Z,0.77
2022-09-01T11:42:21.581Z,3.33
2022-09-01T11:44:58.118Z,3.75
2022-09-01T11:47:45.643Z,2.30
2022-09-01T11:50:22.732Z,1.80
2022-09-01T11:53:05.203Z,2.92
2022-09-01T11:55:42.573Z,1.33
2022-09-01T11:58:33.664Z,1.63
2022-09-01T12:01:14.411Z,5.28
2022-09-01T12:03:48.779Z,6.82
2022-09-01T12:06:27.024Z,8.80
2022-09-01T12:09:03.140Z,21.25
2022-09-01T12:11:36.457Z,18.85
2022-09-01T12:14:12.079Z,19.35
2022-09-01T12:16:44.867Z,17.58
2022-09-01T12:19:27.127Z,15.63
2022-09-01T12:22:04.293Z,8.77
2022-09-01T12:24:37.510Z,1.63
2022-09-01T12:27:10.555Z,1.00
2022-09-01T12:29:43.908Z,1.42
2022-09-01T12:32:17.392Z,7.03
2022-09-01T12:35:05.605Z,0.80
2022-09-01T12:37:42.154Z,2.17
2022-09-01T12:40:36.109Z,1.13
2022-09-01T12:43:08.687Z,1.30
2022-09-01T12:45:45.442Z,0.82
2022-09-01T12:48:26.660Z,2.28
2022-09-01T12:51:02.532Z,3.03
2022-09-01T12:53:36.922Z,3.10
2022-09-01T12:56:18.342Z,9.80
2022-09-01T12:59:03.094Z,1.92
2022-09-01T13:01:37.193Z,1.85
2022-09-01T13:04:22.429Z,2.63
2022-09-01T13:06:57.728Z,2.22
2022-09-01T13:09:30.486Z,1.70
2022-09-01T13:12:29.844Z,3.38
2022-09-01T13:15:02.475Z,4.63
2022-09-01T13:17:35.259Z,2.72
2022-09-01T13:20:08.739Z,1.00
2022-09-01T13:22:44.772Z,2.58
2022-09-01T13:25:21.002Z,1.23
2022-09-01T13:27:55.000Z,2.08
2022-09-01T13:30:28.574Z,0.50
2022-09-01T13:35:54.982Z,1.55
2022-09-01T13:38:27.795Z,1.40
2022-09-01T13:41:02.258Z,1.02
2022-09-01T13:43:35.381Z,1.02
2022-09-01T13:46:08.235Z,3.92
2022-09-01T13:51:35.298Z,1.88
2022-09-01T13:54:08.070Z,2.05
2022-09-01T13:56:40.692Z,0.40
2022-09-01T13:59:13.462Z,1.58
2022-09-01T14:01:46.379Z,1.77
2022-09-01T14:04:20.170Z,0.60
2022-09-01T14:06:53.924Z,1.00
2022-09-01T14:09:27.186Z,2.38
2022-09-01T14:11:59.929Z,1.27
2022-09-01T14:17:27.372Z,2.47
2022-09-01T14:20:00.418Z,5.80
2022-09-01T14:22:38.228Z,3.35
2022-09-01T14:25:12.169Z,2.53
2022-09-01T14:27:46.325Z,2.75
2022-09-01T14:30:25.697Z,2.30
2022-09-01T14:33:02.268Z,7.57
2022-09-01T14:35:41.613Z,7.20
2022-09-01T14:38:15.058Z,4.27
2022-09-01T14:40:49.272Z,3.17
2022-09-01T14:43:22.197Z,1.08
2022-09-01T14:46:10.215Z,0.80
2022-09-01T14:48:43.139Z,0.60
2022-09-01T14:52:10.433Z,3.75
2022-09-01T14:54:20.355Z,1.35
2022-09-01T14:59:45.636Z,0.68
2022-09-01T15:02:18.551Z,0.90
2022-09-01T15:04:52.295Z,0.47
2022-09-01T15:07:25.143Z,0.73
2022-09-01T15:09:59.056Z,0.73
2022-09-01T15:12:32.003Z,1.75
2022-09-01T15:15:05.031Z,2.50
2022-09-01T15:17:38.048Z,0.52
2022-09-01T15:20:29.110Z,3.88
2022-09-01T15:23:02.345Z,1.20
2022-09-01T15:25:35.293Z,3.42
2022-09-01T15:28:08.887Z,1.02
2022-09-01T15:30:42.014Z,4.32
2022-09-01T15:33:18.142Z,4.47
2022-09-01T15:35:50.819Z,2.95
2022-09-01T15:38:29.781Z,6.15
2022-09-01T15:41:03.313Z,6.28
2022-09-01T15:43:36.433Z,18.25
2022-09-01T15:46:08.995Z,19.83
2022-09-01T15:48:45.714Z,20.10
2022-09-01T15:51:24.244Z,13.98
2022-09-01T15:54:00.679Z,18.27
2022-09-01T15:56:33.814Z,17.92
2022-09-01T15:59:08.006Z,21.52
2022-09-01T16:01:43.642Z,17.73
2022-09-01T16:04:19.892Z,20.27
2022-09-01T16:07:00.559Z,18.00
2022-09-01T16:09:33.569Z,7.30
2022-09-01T16:12:08.175Z,2.25
2022-09-01T16:14:43.177Z,1.83
2022-09-01T16:17:28.666Z,1.08
2022-09-01T16:20:21.974Z,2.70
2022-09-01T16:22:56.302Z,2.53
2022-09-01T16:25:33.249Z,1.25
2022-09-01T16:28:26.499Z,1.00
2022-09-01T16:31:13.218Z,1.83
2022-09-01T16:33:58.082Z,1.77
2022-09-01T16:36:52.386Z,1.73
2022-09-01T16:39:34.267Z,1.50
2022-09-01T16:42:28.038Z,2.63
2022-09-01T16:45:30.485Z,2.28
2022-09-01T16:48:32.470Z,2.28
2022-09-01T16:51:32.358Z,2.42
2022-09-01T16:57:42.126Z,1.88
2022-09-01T17:00:18.583Z,2.88
2022-09-01T17:03:19.147Z,1.55
2022-09-01T17:06:16.925Z,1.27
2022-09-01T17:09:02.746Z,0.88
2022-09-01T17:11:49.205Z,0.35
2022-09-01T17:14:37.149Z,0.70
2022-09-01T17:17:15.622Z,0.50
2022-09-01T17:19:53.153Z,0.73
2022-09-01T17:22:26.344Z,2.00
2022-09-01T17:25:10.246Z,1.70
2022-09-01T17:27:51.796Z,1.42
2022-09-01T17:30:24.379Z,2.78
2022-09-01T17:33:18.503Z,1.90
2022-09-01T17:36:20.298Z,2.88
2022-09-01T17:39:01.080Z,1.00
2022-09-01T17:41:46.258Z,2.88
2022-09-01T17:44:31.416Z,1.23
2022-09-01T17:47:31.838Z,1.83
2022-09-01T17:50:20.238Z,1.48
2022-09-01T17:53:22.157Z,5.40
2022-09-01T17:56:21.217Z,5.93
2022-09-01T17:59:23.458Z,5.20
2022-09-01T18:02:20.982Z,4.55
2022-09-01T18:05:07.659Z,3.72
2022-09-01T18:07:55.042Z,3.97
2022-09-01T18:10:34.778Z,4.07
2022-09-01T18:13:30.753Z,2.53
2022-09-01T18:16:31.290Z,4.10
2022-09-01T18:19:18.865Z,2.97
2022-09-01T18:21:58.243Z,3.90
2022-09-01T18:24:49.126Z,5.15
2022-09-01T18:27:24.077Z,6.93
2022-09-01T18:29:57.889Z,5.65
2022-09-01T18:32:53.012Z,4.72
2022-09-01T18:35:51.517Z,4.20
2022-09-01T18:38:59.616Z,5.28
2022-09-01T18:41:51.598Z,2.15
2022-09-01T18:44:53.913Z,4.28
2022-09-01T18:47:35.421Z,11.30
2022-09-01T18:50:20.578Z,4.38
2022-09-01T18:53:23.481Z,8.50
2022-09-01T18:56:24.851Z,7.05
2022-09-01T18:59:12.641Z,3.97
2022-09-01T19:02:03.413Z,3.83
2022-09-01T19:04:42.349Z,10.07
2022-09-01T19:07:43.193Z,33.63
2022-09-01T19:10:45.002Z,62.28
2022-09-01T19:13:20.365Z,98.75
2022-09-01T19:16:15.449Z,116.90
2022-09-01T19:19:18.118Z,95.47
2022-09-01T19:21:55.159Z,83.45
2022-09-01T19:24:41.054Z,65.43
2022-09-01T19:27:35.356Z,65.50
2022-09-01T19:30:09.036Z,63.22
2022-09-01T19:32:41.938Z,50.67
2022-09-01T19:35:17.494Z,38.35
2022-09-01T19:37:51.306Z,38.17
2022-09-01T19:40:31.931Z,29.02
2022-09-01T19:43:13.596Z,26.55
2022-09-01T19:46:21.107Z,27.02
2022-09-01T19:49:10.981Z,23.85
2022-09-01T19:51:43.525Z,21.73
2022-09-01T19:54:19.249Z,24.75
2022-09-01T19:57:19.209Z,13.70
2022-09-01T20:00:08.240Z,24.55
2022-09-01T20:02:51.793Z,23.38
2022-09-01T20:05:24.720Z,34.53
2022-09-01T20:07:57.225Z,27.95
2022-09-01T20:10:42.509Z,13.68
2022-09-01T20:13:34.332Z,14.77
2022-09-01T20:16:26.255Z,5.43
2022-09-01T20:19:04.778Z,13.32
2022-09-01T20:21:45.823Z,9.75
2022-09-01T20:24:39.777Z,10.65
2022-09-01T20:27:18.804Z,6.35
2022-09-01T20:30:12.247Z,6.63
2022-09-01T20:32:57.165Z,5.90
2022-09-01T20:35:54.892Z,3.00
2022-09-01T20:39:00.001Z,3.70
2022-09-01T20:41:45.411Z,5.45
2022-09-01T20:44:43.341Z,7.72
2022-09-01T20:47:16.054Z,5.85
2022-09-01T20:49:49.470Z,4.50
2022-09-01T20:52:39.363Z,5.63
2022-09-01T20:55:38.938Z,6.32
2022-09-01T20:58:43.945Z,2.10
2022-09-01T21:01:38.182Z,3.78
2022-09-01T21:04:30.883Z,3.75
2022-09-01T21:07:31.356Z,2.72
2022-09-01T21:10:18.721Z,2.92
2022-09-01T21:12:57.561Z,3.25
2022-09-01T21:15:57.447Z,2.38
2022-09-01T21:18:59.182Z,2.92
2022-09-01T21:21:38.845Z,2.35
2022-09-01T21:24:11.585Z,5.78
2022-09-01T21:26:44.243Z,3.20
2022-09-01T21:29:49.823Z,4.68
2022-09-01T21:32:23.545Z,3.55
2022-09-01T21:34:57.505Z,3.65
2022-09-01T21:37:30.403Z,5.32
2022-09-01T21:40:04.787Z,19.77
2022-09-01T21:42:48.608Z,12.05
2022-09-01T21:45:22.408Z,13.75
2022-09-01T21:47:55.578Z,21.63
2022-09-01T21:50:29.252Z,40.25
2022-09-01T21:53:02.049Z,54.08
2022-09-01T21:55:35.459Z,63.60
2022-09-01T21:58:08.500Z,57.05
2022-09-01T22:00:43.423Z,45.45
2022-09-01T22:03:16.008Z,45.15
2022-09-01T22:05:48.764Z,34.42
2022-09-01T22:08:21.427Z,42.05
2022-09-01T22:10:55.488Z,37.50
2022-09-01T22:13:28.272Z,53.05
2022-09-01T22:16:01.075Z,54.92
2022-09-01T22:18:33.763Z,44.92
2022-09-01T22:21:09.411Z,42.63
2022-09-01T22:23:43.255Z,42.28
2022-09-01T22:26:22.981Z,43.80
2022-09-01T22:28:57.207Z,44.25
2022-09-01T22:31:31.655Z,43.20
2022-09-01T22:34:06.523Z,36.92
2022-09-01T22:36:46.139Z,37.40
2022-09-01T22:39:19.368Z,41.80
2022-09-01T22:41:55.441Z,39.55
2022-09-01T22:44:27.973Z,35.70
2022-09-01T22:47:00.744Z,37.95
2022-09-01T22:49:33.317Z,28.35
2022-09-01T22:52:06.334Z,35.10
2022-09-01T22:54:38.911Z,35.72
2022-09-01T22:57:12.086Z,40.15
2022-09-01T22:59:44.723Z,37.55
2022-09-01T23:02:19.459Z,44.63
2022-09-01T23:04:52.882Z,35.75
2022-09-01T23:07:25.783Z,59.33
2022-09-01T23:09:59.344Z,37.33
2022-09-01T23:12:32.593Z,33.92
2022-09-01T23:15:05.813Z,34.92
2022-09-01T23:17:38.833Z,45.30
2022-09-01T23:20:13.540Z,40.00
2022-09-01T23:22:46.596Z,48.38
2022-09-01T23:25:19.388Z,58.38
2022-09-01T23:27:52.303Z,49.05
2022-09-01T23:30:24.847Z,58.60
2022-09-01T23:32:58.052Z,50.40
2022-09-01T23:35:31.248Z,52.35
2022-09-01T23:38:03.998Z,45.63
2022-09-01T23:40:40.739Z,51.13
2022-09-01T23:43:14.436Z,59.20
2022-09-01T23:45:56.600Z,43.13
2022-09-01T23:48:30.197Z,39.58
2022-09-01T23:51:10.764Z,42.70
2022-09-01T23:53:43.997Z,67.65
2022-09-01T23:56:22.895Z,149.05
2022-09-01T23:58:56.227Z,96.93
